createdAt,value
2023-03-14T13:04:40.067Z,0.50
2023-03-14T15:32:06.447Z,0.50
2023-03-14T15:36:06.382Z,0.41
2023-03-14T15:40:06.056Z,0.50
2023-03-14T15:44:06.434Z,0.50
2023-03-14T15:48:06.356Z,0.51
2023-03-14T15:52:06.357Z,0.50
2023-03-14T15:56:06.336Z,0.50
2023-03-14T16:00:05.938Z,0.51
2023-03-14T16:04:05.840Z,0.51
2023-03-14T16:08:05.888Z,0.50
2023-03-14T16:12:06.376Z,0.52
2023-03-14T16:16:06.159Z,0.51
2023-03-14T16:20:06.413Z,0.51
2023-03-14T16:24:06.910Z,0.51
2023-03-14T16:28:11.156Z,0.50
2023-03-14T16:32:06.684Z,0.51
2023-03-14T16:36:06.641Z,0.52
2023-03-14T16:44:07.527Z,0.57
2023-03-14T16:48:06.868Z,0.60
2023-03-14T16:52:06.974Z,0.63
2023-03-14T16:56:06.861Z,0.64
2023-03-14T17:00:09.466Z,0.67
2023-03-14T17:04:06.978Z,0.68
2023-03-14T17:08:07.420Z,0.69
2023-03-14T17:12:06.883Z,0.72
2023-03-14T17:16:06.938Z,0.73
2023-03-14T17:20:06.882Z,0.74
2023-03-14T17:24:06.873Z,0.76
2023-03-14T17:28:06.884Z,0.79
2023-03-14T17:32:06.691Z,0.82
2023-03-14T17:36:06.953Z,0.83
2023-03-14T17:40:06.925Z,0.86
2023-03-14T17:44:06.889Z,0.86
2023-03-14T17:48:06.886Z,0.91
2023-03-14T17:52:06.488Z,0.92
2023-03-14T17:56:06.906Z,0.94
2023-03-14T18:00:06.898Z,0.93
2023-03-14T18:04:06.980Z,0.97
2023-03-14T18:08:06.918Z,0.99
2023-03-14T18:12:08.582Z,1.00
2023-03-14T18:16:07.469Z,1.02
2023-03-14T18:20:07.408Z,1.04
2023-03-14T18:24:07.908Z,1.08
2023-03-14T18:28:07.619Z,1.09
2023-03-14T18:32:07.900Z,1.10
2023-03-14T18:36:08.477Z,1.13
2023-03-14T18:40:08.409Z,1.16
2023-03-14T18:44:08.325Z,1.21
2023-03-14T18:48:08.487Z,1.20
2023-03-14T18:52:08.926Z,1.21
2023-03-14T18:56:08.929Z,1.24
2023-03-14T19:00:09.073Z,1.25
2023-03-14T19:04:10.959Z,1.29
2023-03-14T19:08:09.398Z,1.28
2023-03-14T19:12:09.928Z,1.32
2023-03-14T19:16:09.980Z,1.30
2023-03-14T19:20:10.406Z,1.34
2023-03-14T19:24:10.405Z,1.36
2023-03-14T19:28:10.405Z,1.38
2023-03-14T19:32:10.815Z,1.50
2023-03-14T19:36:10.973Z,1.50
2023-03-14T19:40:11.396Z,1.48
2023-03-14T19:44:11.300Z,1.47
2023-03-14T19:48:11.906Z,1.49
2023-03-14T19:52:11.686Z,1.56
2023-03-14T19:56:11.961Z,1.58
2023-03-14T20:00:12.421Z,1.59
2023-03-14T20:04:12.331Z,1.59
2023-03-14T20:08:12.932Z,1.54
2023-03-14T20:12:12.909Z,1.59
2023-03-14T20:16:13.488Z,1.59
2023-03-14T20:20:13.440Z,1.65
2023-03-14T20:24:13.141Z,1.67
2023-03-14T20:28:13.073Z,1.67
2023-03-14T20:32:13.451Z,1.69
2023-03-14T20:36:13.514Z,1.70
2023-03-14T20:40:13.448Z,1.71
2023-03-14T20:44:12.971Z,1.72
2023-03-14T20:48:12.986Z,1.69
2023-03-14T20:52:12.884Z,1.75
2023-03-14T20:56:12.956Z,1.75
2023-03-14T21:00:12.790Z,1.74
2023-03-14T21:04:13.047Z,1.76
2023-03-14T21:08:13.077Z,1.74
2023-03-14T21:12:13.460Z,1.78
2023-03-14T21:16:14.021Z,1.83
2023-03-14T21:20:13.672Z,1.87
2023-03-14T21:24:13.851Z,1.85
2023-03-14T21:28:14.009Z,1.85
2023-03-14T21:32:14.488Z,1.84
2023-03-14T21:36:14.535Z,1.83
2023-03-14T21:40:14.453Z,1.87
2023-03-14T21:44:14.609Z,1.88
2023-03-14T21:48:14.991Z,1.86
2023-03-14T21:52:15.493Z,1.92
2023-03-14T21:56:15.166Z,1.92
2023-03-14T22:00:15.308Z,1.97
2023-03-14T22:04:15.994Z,1.94
2023-03-14T22:08:15.646Z,1.96
2023-03-14T22:12:15.976Z,1.93
2023-03-14T22:16:15.985Z,1.94
2023-03-14T22:20:16.110Z,1.99
2023-03-14T22:24:16.468Z,1.94
2023-03-14T22:28:16.396Z,1.95
2023-03-14T22:32:16.973Z,2.01
2023-03-14T22:36:16.730Z,2.01
2023-03-14T22:40:16.991Z,1.95
2023-03-14T22:44:17.483Z,2.01
2023-03-14T22:48:17.494Z,2.01
2023-03-14T22:52:17.316Z,2.05
2023-03-14T22:56:17.441Z,2.03
2023-03-14T23:00:17.972Z,2.05
2023-03-14T23:04:17.985Z,1.99
2023-03-14T23:08:17.846Z,2.02
2023-03-14T23:12:18.061Z,2.02
2023-03-14T23:16:19.872Z,2.05
2023-03-14T23:20:18.473Z,2.09
2023-03-14T23:24:18.163Z,2.06
2023-03-14T23:28:18.147Z,2.05
2023-03-14T23:32:18.076Z,2.12
2023-03-14T23:36:18.023Z,2.10
2023-03-14T23:40:18.580Z,2.14
2023-03-14T23:44:17.961Z,2.11
2023-03-14T23:48:18.021Z,2.16
2023-03-14T23:52:17.910Z,2.14
2023-03-14T23:56:17.869Z,2.14
